sensor_id;sensor_type;location;lat;lon;timestamp;pressure;altitude;pressure_sealevel;temperature;humidity
5296;BME280;2670;42.720;23.336;2023-08-07T00:01:17;-18091.72;;;-145.34;75.15
5296;BME280;2670;42.720;23.336;2023-08-07T00:03:43;-18091.72;;;-145.34;75.58
5296;BME280;2670;42.720;23.336;2023-08-07T00:06:10;-18091.72;;;-145.34;76.05
5296;BME280;2670;42.720;23.336;2023-08-07T00:08:38;-18091.72;;;-145.34;75.99
5296;BME280;2670;42.720;23.336;2023-08-07T00:11:06;-18091.72;;;-145.34;74.72
5296;BME280;2670;42.720;23.336;2023-08-07T00:13:33;-18091.72;;;-145.34;74.17
5296;BME280;2670;42.720;23.336;2023-08-07T00:16:00;-18091.72;;;-145.34;75.04
5296;BME280;2670;42.720;23.336;2023-08-07T00:18:27;-18091.72;;;-145.34;74.78
5296;BME280;2670;42.720;23.336;2023-08-07T00:20:54;-18091.72;;;-145.34;74.87
5296;BME280;2670;42.720;23.336;2023-08-07T00:23:20;-18091.72;;;-145.34;75.72
5296;BME280;2670;42.720;23.336;2023-08-07T00:25:48;-18091.72;;;-145.34;77.18
5296;BME280;2670;42.720;23.336;2023-08-07T00:28:15;-18091.72;;;-145.34;77.49
5296;BME280;2670;42.720;23.336;2023-08-07T00:30:42;-18091.72;;;-145.34;77.21
5296;BME280;2670;42.720;23.336;2023-08-07T00:33:09;-18091.72;;;-145.34;77.51
5296;BME280;2670;42.720;23.336;2023-08-07T00:35:36;-18091.72;;;-145.34;78.11
5296;BME280;2670;42.720;23.336;2023-08-07T00:38:04;-18091.72;;;-145.34;79.62
5296;BME280;2670;42.720;23.336;2023-08-07T00:40:36;-18091.72;;;-145.34;80.11
5296;BME280;2670;42.720;23.336;2023-08-07T00:43:04;-18091.72;;;-145.34;80.56
5296;BME280;2670;42.720;23.336;2023-08-07T00:45:35;-18091.72;;;-145.34;80.49
5296;BME280;2670;42.720;23.336;2023-08-07T00:48:03;-18091.72;;;-145.34;80.28
5296;BME280;2670;42.720;23.336;2023-08-07T00:50:30;-18091.72;;;-145.34;81.50
5296;BME280;2670;42.720;23.336;2023-08-07T00:52:57;-18091.72;;;-145.34;80.11
5296;BME280;2670;42.720;23.336;2023-08-07T00:55:24;-18091.72;;;-145.34;79.56
5296;BME280;2670;42.720;23.336;2023-08-07T00:57:51;-18091.72;;;-145.34;80.24
5296;BME280;2670;42.720;23.336;2023-08-07T01:00:19;-18091.72;;;-145.34;81.22
5296;BME280;2670;42.720;23.336;2023-08-07T01:02:47;-18091.72;;;-145.34;79.70
5296;BME280;2670;42.720;23.336;2023-08-07T01:05:16;-18091.72;;;-145.34;78.88
5296;BME280;2670;42.720;23.336;2023-08-07T01:07:47;-18091.72;;;-145.34;78.87
5296;BME280;2670;42.720;23.336;2023-08-07T01:10:14;-18091.72;;;-145.34;79.85
5296;BME280;2670;42.720;23.336;2023-08-07T01:12:47;-18091.72;;;-145.34;78.75
5296;BME280;2670;42.720;23.336;2023-08-07T01:15:16;-18091.72;;;-145.34;79.66
5296;BME280;2670;42.720;23.336;2023-08-07T01:17:49;-18091.72;;;-145.34;79.46
5296;BME280;2670;42.720;23.336;2023-08-07T01:20:16;-18091.72;;;-145.34;78.86
5296;BME280;2670;42.720;23.336;2023-08-07T01:22:45;-18091.72;;;-145.34;78.69
5296;BME280;2670;42.720;23.336;2023-08-07T01:25:12;-18091.72;;;-145.34;78.23
5296;BME280;2670;42.720;23.336;2023-08-07T01:27:44;-18091.72;;;-145.34;78.40
5296;BME280;2670;42.720;23.336;2023-08-07T01:30:17;-18091.72;;;-145.34;78.08
5296;BME280;2670;42.720;23.336;2023-08-07T01:32:53;-18091.72;;;-145.34;77.62
5296;BME280;2670;42.720;23.336;2023-08-07T01:35:23;-18091.72;;;-145.34;77.20
5296;BME280;2670;42.720;23.336;2023-08-07T01:37:56;-18091.72;;;-145.34;78.52
5296;BME280;2670;42.720;23.336;2023-08-07T01:40:23;-18091.72;;;-145.34;78.42
5296;BME280;2670;42.720;23.336;2023-08-07T01:42:50;-18091.72;;;-145.34;78.69
5296;BME280;2670;42.720;23.336;2023-08-07T01:45:22;-18091.72;;;-145.34;77.75
5296;BME280;2670;42.720;23.336;2023-08-07T01:47:49;-18091.72;;;-145.34;78.42
5296;BME280;2670;42.720;23.336;2023-08-07T01:50:17;-18091.72;;;-145.34;77.05
5296;BME280;2670;42.720;23.336;2023-08-07T01:52:44;-18091.72;;;-145.34;77.31
5296;BME280;2670;42.720;23.336;2023-08-07T01:55:12;-18091.72;;;-145.34;77.43
5296;BME280;2670;42.720;23.336;2023-08-07T01:57:39;-18091.72;;;-145.34;77.38
5296;BME280;2670;42.720;23.336;2023-08-07T02:00:07;-18091.72;;;-145.34;78.24
5296;BME280;2670;42.720;23.336;2023-08-07T02:02:35;-18091.72;;;-145.34;78.77
5296;BME280;2670;42.720;23.336;2023-08-07T02:05:02;-18091.72;;;-145.34;77.95
5296;BME280;2670;42.720;23.336;2023-08-07T02:07:29;-18091.72;;;-145.34;79.28
5296;BME280;2670;42.720;23.336;2023-08-07T02:09:56;-18091.72;;;-145.34;78.65
5296;BME280;2670;42.720;23.336;2023-08-07T02:12:24;-18091.72;;;-145.34;78.33
5296;BME280;2670;42.720;23.336;2023-08-07T02:14:52;-18091.72;;;-145.34;77.49
5296;BME280;2670;42.720;23.336;2023-08-07T02:17:20;-18091.72;;;-145.34;77.54
5296;BME280;2670;42.720;23.336;2023-08-07T02:19:47;-18091.72;;;-145.34;77.70
5296;BME280;2670;42.720;23.336;2023-08-07T02:22:13;-18091.72;;;-145.34;77.40
5296;BME280;2670;42.720;23.336;2023-08-07T02:24:40;-18091.72;;;-145.34;77.62
5296;BME280;2670;42.720;23.336;2023-08-07T02:27:07;-18091.72;;;-145.34;78.73
5296;BME280;2670;42.720;23.336;2023-08-07T02:29:35;-18091.72;;;-145.34;78.66
5296;BME280;2670;42.720;23.336;2023-08-07T02:32:02;-18091.72;;;-145.34;77.51
5296;BME280;2670;42.720;23.336;2023-08-07T02:34:29;-18091.72;;;-145.34;77.93
5296;BME280;2670;42.720;23.336;2023-08-07T02:36:56;-18091.72;;;-145.34;79.23
5296;BME280;2670;42.720;23.336;2023-08-07T02:39:23;-18091.72;;;-145.34;78.48
5296;BME280;2670;42.720;23.336;2023-08-07T02:41:50;-18091.72;;;-145.34;78.82
5296;BME280;2670;42.720;23.336;2023-08-07T02:44:16;-18091.72;;;-145.34;80.58
5296;BME280;2670;42.720;23.336;2023-08-07T02:46:45;-18091.72;;;-145.34;80.39
5296;BME280;2670;42.720;23.336;2023-08-07T02:49:11;-18091.72;;;-145.34;81.14
5296;BME280;2670;42.720;23.336;2023-08-07T02:51:38;-18091.72;;;-145.34;81.60
5296;BME280;2670;42.720;23.336;2023-08-07T02:54:05;-18091.72;;;-145.34;81.30
5296;BME280;2670;42.720;23.336;2023-08-07T02:56:31;-18091.72;;;-145.34;81.54
5296;BME280;2670;42.720;23.336;2023-08-07T02:58:59;-18091.72;;;-145.34;81.97
5296;BME280;2670;42.720;23.336;2023-08-07T03:01:27;-18091.72;;;-145.34;81.99
5296;BME280;2670;42.720;23.336;2023-08-07T03:03:55;-18091.72;;;-145.34;82.58
5296;BME280;2670;42.720;23.336;2023-08-07T03:06:22;-18091.72;;;-145.34;82.33
5296;BME280;2670;42.720;23.336;2023-08-07T03:08:48;-18091.72;;;-145.34;82.35
5296;BME280;2670;42.720;23.336;2023-08-07T03:11:15;-18091.72;;;-145.34;81.86
5296;BME280;2670;42.720;23.336;2023-08-07T03:13:42;-18091.72;;;-145.34;81.69
5296;BME280;2670;42.720;23.336;2023-08-07T03:16:09;-18091.72;;;-145.34;81.86
5296;BME280;2670;42.720;23.336;2023-08-07T03:18:36;-18091.72;;;-145.34;82.50
5296;BME280;2670;42.720;23.336;2023-08-07T03:21:04;-18091.72;;;-145.34;81.50
5296;BME280;2670;42.720;23.336;2023-08-07T03:23:31;-18091.72;;;-145.34;81.17
5296;BME280;2670;42.720;23.336;2023-08-07T03:26:05;-18091.72;;;-145.34;81.21
5296;BME280;2670;42.720;23.336;2023-08-07T03:28:32;-18091.72;;;-145.34;81.05
5296;BME280;2670;42.720;23.336;2023-08-07T03:30:59;-18091.72;;;-145.34;79.86
5296;BME280;2670;42.720;23.336;2023-08-07T03:33:26;-18091.72;;;-145.34;80.50
5296;BME280;2670;42.720;23.336;2023-08-07T03:35:52;-18091.72;;;-145.34;79.97
5296;BME280;2670;42.720;23.336;2023-08-07T03:38:20;-18091.72;;;-145.34;79.90
5296;BME280;2670;42.720;23.336;2023-08-07T03:40:47;-18091.72;;;-145.34;79.69
5296;BME280;2670;42.720;23.336;2023-08-07T03:43:14;-18091.72;;;-145.34;80.70
5296;BME280;2670;42.720;23.336;2023-08-07T03:45:41;-18091.72;;;-145.34;80.52
5296;BME280;2670;42.720;23.336;2023-08-07T03:48:08;-18091.72;;;-145.34;79.74
5296;BME280;2670;42.720;23.336;2023-08-07T03:50:34;-18091.72;;;-145.34;79.53
5296;BME280;2670;42.720;23.336;2023-08-07T03:53:03;-18091.72;;;-145.34;79.66
5296;BME280;2670;42.720;23.336;2023-08-07T03:55:33;-18091.72;;;-145.34;79.84
5296;BME280;2670;42.720;23.336;2023-08-07T03:58:00;-18091.72;;;-145.34;80.96
5296;BME280;2670;42.720;23.336;2023-08-07T04:00:26;-18091.72;;;-145.34;80.90
5296;BME280;2670;42.720;23.336;2023-08-07T04:02:53;-18091.72;;;-145.34;81.30
5296;BME280;2670;42.720;23.336;2023-08-07T04:05:20;-18091.72;;;-145.34;81.61
5296;BME280;2670;42.720;23.336;2023-08-07T04:07:46;-18091.72;;;-145.34;81.58
5296;BME280;2670;42.720;23.336;2023-08-07T04:10:13;-18091.72;;;-145.34;81.27
5296;BME280;2670;42.720;23.336;2023-08-07T04:12:41;-18091.72;;;-145.34;81.34
5296;BME280;2670;42.720;23.336;2023-08-07T04:15:09;-18091.72;;;-145.34;81.25
5296;BME280;2670;42.720;23.336;2023-08-07T04:17:35;-18091.72;;;-145.34;79.92
5296;BME280;2670;42.720;23.336;2023-08-07T04:20:03;-18091.72;;;-145.34;78.91
5296;BME280;2670;42.720;23.336;2023-08-07T04:22:30;-18091.72;;;-145.34;78.84
5296;BME280;2670;42.720;23.336;2023-08-07T04:24:57;-18091.72;;;-145.34;77.25
5296;BME280;2670;42.720;23.336;2023-08-07T04:27:25;-18091.72;;;-145.34;78.11
5296;BME280;2670;42.720;23.336;2023-08-07T04:29:55;-18091.72;;;-145.34;79.15
5296;BME280;2670;42.720;23.336;2023-08-07T04:32:23;-18091.72;;;-145.34;77.42
5296;BME280;2670;42.720;23.336;2023-08-07T04:34:50;-18091.72;;;-145.34;77.80
5296;BME280;2670;42.720;23.336;2023-08-07T04:37:17;-18091.72;;;-145.34;77.87
5296;BME280;2670;42.720;23.336;2023-08-07T04:39:44;-18091.72;;;-145.34;77.98
5296;BME280;2670;42.720;23.336;2023-08-07T04:42:10;-18091.72;;;-145.34;78.00
5296;BME280;2670;42.720;23.336;2023-08-07T04:44:39;-18091.72;;;-145.34;77.75
5296;BME280;2670;42.720;23.336;2023-08-07T04:47:07;-18091.72;;;-145.34;76.80
5296;BME280;2670;42.720;23.336;2023-08-07T04:49:33;-18091.72;;;-145.34;76.02
5296;BME280;2670;42.720;23.336;2023-08-07T04:52:00;-18091.72;;;-145.34;76.68
5296;BME280;2670;42.720;23.336;2023-08-07T04:54:27;-18091.72;;;-145.34;77.92
5296;BME280;2670;42.720;23.336;2023-08-07T04:56:54;-18091.72;;;-145.34;76.31
5296;BME280;2670;42.720;23.336;2023-08-07T04:59:20;-18091.72;;;-145.34;74.81
5296;BME280;2670;42.720;23.336;2023-08-07T05:01:47;-18091.72;;;-145.34;74.65
5296;BME280;2670;42.720;23.336;2023-08-07T05:04:15;-18091.72;;;-145.34;75.24
5296;BME280;2670;42.720;23.336;2023-08-07T05:06:42;-18091.72;;;-145.34;75.46
5296;BME280;2670;42.720;23.336;2023-08-07T05:09:08;-18091.72;;;-145.34;75.13
5296;BME280;2670;42.720;23.336;2023-08-07T05:11:35;-18091.72;;;-145.34;74.96
5296;BME280;2670;42.720;23.336;2023-08-07T05:14:02;-18091.72;;;-145.34;73.64
5296;BME280;2670;42.720;23.336;2023-08-07T05:16:29;-18091.72;;;-145.34;73.86
5296;BME280;2670;42.720;23.336;2023-08-07T05:18:55;-18091.72;;;-145.34;74.83
5296;BME280;2670;42.720;23.336;2023-08-07T05:21:23;-18091.72;;;-145.34;74.78
5296;BME280;2670;42.720;23.336;2023-08-07T05:23:50;-18091.72;;;-145.34;73.74
5296;BME280;2670;42.720;23.336;2023-08-07T05:26:18;-18091.72;;;-145.34;71.96
5296;BME280;2670;42.720;23.336;2023-08-07T05:28:45;-18091.72;;;-145.34;71.58
5296;BME280;2670;42.720;23.336;2023-08-07T05:31:12;-18091.72;;;-145.34;70.99
5296;BME280;2670;42.720;23.336;2023-08-07T05:33:39;-18091.72;;;-145.34;71.36
5296;BME280;2670;42.720;23.336;2023-08-07T05:36:06;-18091.72;;;-145.34;71.72
5296;BME280;2670;42.720;23.336;2023-08-07T05:38:34;-18091.72;;;-145.34;71.86
5296;BME280;2670;42.720;23.336;2023-08-07T05:41:01;-18091.72;;;-145.34;73.33
5296;BME280;2670;42.720;23.336;2023-08-07T05:43:27;-18091.72;;;-145.34;72.88
5296;BME280;2670;42.720;23.336;2023-08-07T05:45:54;-18091.72;;;-145.34;72.64
5296;BME280;2670;42.720;23.336;2023-08-07T05:48:21;-18091.72;;;-145.34;71.99
5296;BME280;2670;42.720;23.336;2023-08-07T05:50:47;-18091.72;;;-145.34;71.39
5296;BME280;2670;42.720;23.336;2023-08-07T05:53:14;-18091.72;;;-145.34;70.89
5296;BME280;2670;42.720;23.336;2023-08-07T05:55:42;-18091.72;;;-145.34;69.88
5296;BME280;2670;42.720;23.336;2023-08-07T05:58:09;-18091.72;;;-145.34;70.18
5296;BME280;2670;42.720;23.336;2023-08-07T06:00:35;-18091.72;;;-145.34;69.01
5296;BME280;2670;42.720;23.336;2023-08-07T06:03:02;-18091.72;;;-145.34;68.80
5296;BME280;2670;42.720;23.336;2023-08-07T06:05:29;-18091.72;;;-145.34;69.47
5296;BME280;2670;42.720;23.336;2023-08-07T06:07:56;-18091.72;;;-145.34;69.56
5296;BME280;2670;42.720;23.336;2023-08-07T06:10:23;-18091.72;;;-145.34;70.61
5296;BME280;2670;42.720;23.336;2023-08-07T06:12:51;-18091.72;;;-145.34;68.52
5296;BME280;2670;42.720;23.336;2023-08-07T06:15:18;-18091.72;;;-145.34;67.59
5296;BME280;2670;42.720;23.336;2023-08-07T06:17:44;-18091.72;;;-145.34;66.84
5296;BME280;2670;42.720;23.336;2023-08-07T06:20:11;-18091.72;;;-145.34;68.24
5296;BME280;2670;42.720;23.336;2023-08-07T06:22:39;-18091.72;;;-145.34;66.88
5296;BME280;2670;42.720;23.336;2023-08-07T06:25:07;-18091.72;;;-145.34;67.41
5296;BME280;2670;42.720;23.336;2023-08-07T06:27:34;-18091.72;;;-145.34;66.71
5296;BME280;2670;42.720;23.336;2023-08-07T06:30:02;-18091.72;;;-145.34;67.63
5296;BME280;2670;42.720;23.336;2023-08-07T06:32:29;-18091.72;;;-145.34;66.65
5296;BME280;2670;42.720;23.336;2023-08-07T06:34:55;-18091.72;;;-145.34;66.26
5296;BME280;2670;42.720;23.336;2023-08-07T06:37:22;-18091.72;;;-145.34;65.48
5296;BME280;2670;42.720;23.336;2023-08-07T06:39:49;-18091.72;;;-145.34;65.13
5296;BME280;2670;42.720;23.336;2023-08-07T06:42:16;-18091.72;;;-145.34;63.22
5296;BME280;2670;42.720;23.336;2023-08-07T06:44:43;-18091.72;;;-145.34;64.09
5296;BME280;2670;42.720;23.336;2023-08-07T06:47:11;-18091.72;;;-145.34;63.86
5296;BME280;2670;42.720;23.336;2023-08-07T06:49:38;-18091.72;;;-145.34;61.88
5296;BME280;2670;42.720;23.336;2023-08-07T06:52:05;-18091.72;;;-145.34;62.39
5296;BME280;2670;42.720;23.336;2023-08-07T06:54:32;-18091.72;;;-145.34;62.75
5296;BME280;2670;42.720;23.336;2023-08-07T06:56:58;-18091.72;;;-145.34;61.30
5296;BME280;2670;42.720;23.336;2023-08-07T06:59:25;-18091.72;;;-145.34;62.04
5296;BME280;2670;42.720;23.336;2023-08-07T07:01:52;-18091.72;;;-145.34;62.27
5296;BME280;2670;42.720;23.336;2023-08-07T07:04:20;-18091.72;;;-145.34;60.47
5296;BME280;2670;42.720;23.336;2023-08-07T07:06:47;-18091.72;;;-145.34;60.85
5296;BME280;2670;42.720;23.336;2023-08-07T07:09:13;-18091.72;;;-145.34;60.98
5296;BME280;2670;42.720;23.336;2023-08-07T07:11:42;-18091.72;;;-145.34;60.67
5296;BME280;2670;42.720;23.336;2023-08-07T07:14:09;-18091.72;;;-145.34;60.70
5296;BME280;2670;42.720;23.336;2023-08-07T07:16:36;-18091.72;;;-145.34;58.56
5296;BME280;2670;42.720;23.336;2023-08-07T07:19:03;-18091.72;;;-145.34;59.29
5296;BME280;2670;42.720;23.336;2023-08-07T07:21:33;-18091.72;;;-145.34;59.67
5296;BME280;2670;42.720;23.336;2023-08-07T07:24:00;-18091.72;;;-145.34;59.55
5296;BME280;2670;42.720;23.336;2023-08-07T07:26:26;-18091.72;;;-145.34;59.65
5296;BME280;2670;42.720;23.336;2023-08-07T07:28:53;-18091.72;;;-145.34;60.51
5296;BME280;2670;42.720;23.336;2023-08-07T07:31:20;-18091.72;;;-145.34;60.28
5296;BME280;2670;42.720;23.336;2023-08-07T07:33:47;-18091.72;;;-145.34;60.67
5296;BME280;2670;42.720;23.336;2023-08-07T07:36:15;-18091.72;;;-145.34;59.78
5296;BME280;2670;42.720;23.336;2023-08-07T07:38:45;-18091.72;;;-145.34;59.97
5296;BME280;2670;42.720;23.336;2023-08-07T07:41:12;-18091.72;;;-145.34;57.19
5296;BME280;2670;42.720;23.336;2023-08-07T07:43:39;-18091.72;;;-145.34;57.10
5296;BME280;2670;42.720;23.336;2023-08-07T07:46:06;-18091.72;;;-145.34;55.28
5296;BME280;2670;42.720;23.336;2023-08-07T07:48:32;-18091.72;;;-145.34;54.80
5296;BME280;2670;42.720;23.336;2023-08-07T07:50:59;-18091.72;;;-145.34;56.38
5296;BME280;2670;42.720;23.336;2023-08-07T07:53:27;-18091.72;;;-145.34;55.95
5296;BME280;2670;42.720;23.336;2023-08-07T07:55:55;-18091.72;;;-145.34;55.02
5296;BME280;2670;42.720;23.336;2023-08-07T07:58:21;-18091.72;;;-145.34;55.80
5296;BME280;2670;42.720;23.336;2023-08-07T08:00:48;-18091.72;;;-145.34;55.12
5296;BME280;2670;42.720;23.336;2023-08-07T08:03:17;-18091.72;;;-145.34;54.73
5296;BME280;2670;42.720;23.336;2023-08-07T08:05:44;-18091.72;;;-145.34;55.52
5296;BME280;2670;42.720;23.336;2023-08-07T08:08:11;-18091.72;;;-145.34;54.22
5296;BME280;2670;42.720;23.336;2023-08-07T08:10:37;-18091.72;;;-145.34;52.86
5296;BME280;2670;42.720;23.336;2023-08-07T08:13:08;-18091.72;;;-145.34;52.64
5296;BME280;2670;42.720;23.336;2023-08-07T08:15:35;-18091.72;;;-145.34;54.14
5296;BME280;2670;42.720;23.336;2023-08-07T08:18:01;-18091.72;;;-145.34;52.71
5296;BME280;2670;42.720;23.336;2023-08-07T08:20:28;-18091.72;;;-145.34;52.52
5296;BME280;2670;42.720;23.336;2023-08-07T08:22:56;-18091.72;;;-145.34;51.18
5296;BME280;2670;42.720;23.336;2023-08-07T08:25:23;-18091.72;;;-145.34;50.43
5296;BME280;2670;42.720;23.336;2023-08-07T08:27:49;-18091.72;;;-145.34;50.99
5296;BME280;2670;42.720;23.336;2023-08-07T08:30:17;-18091.72;;;-145.34;51.06
5296;BME280;2670;42.720;23.336;2023-08-07T08:32:44;-18091.72;;;-145.34;51.27
5296;BME280;2670;42.720;23.336;2023-08-07T08:35:11;-18091.72;;;-145.34;49.97
5296;BME280;2670;42.720;23.336;2023-08-07T08:37:38;-18091.72;;;-145.34;50.52
5296;BME280;2670;42.720;23.336;2023-08-07T08:40:07;-18091.72;;;-145.34;49.47
5296;BME280;2670;42.720;23.336;2023-08-07T08:42:35;-18091.72;;;-145.34;49.58
5296;BME280;2670;42.720;23.336;2023-08-07T08:45:04;-18091.72;;;-145.34;50.33
5296;BME280;2670;42.720;23.336;2023-08-07T08:47:33;-18091.72;;;-145.34;50.55
5296;BME280;2670;42.720;23.336;2023-08-07T08:50:06;-18091.72;;;-145.34;50.25
5296;BME280;2670;42.720;23.336;2023-08-07T08:52:33;-18091.72;;;-145.34;49.99
5296;BME280;2670;42.720;23.336;2023-08-07T08:55:02;-18091.72;;;-145.34;50.47
5296;BME280;2670;42.720;23.336;2023-08-07T08:57:30;-18091.72;;;-145.34;49.70
5296;BME280;2670;42.720;23.336;2023-08-07T08:59:57;-18091.72;;;-145.34;49.23
5296;BME280;2670;42.720;23.336;2023-08-07T09:02:24;-18091.72;;;-145.34;49.89
5296;BME280;2670;42.720;23.336;2023-08-07T09:04:52;-18091.72;;;-145.34;49.83
5296;BME280;2670;42.720;23.336;2023-08-07T09:07:20;-18091.72;;;-145.34;48.33
5296;BME280;2670;42.720;23.336;2023-08-07T09:09:47;-18091.72;;;-145.34;49.47
5296;BME280;2670;42.720;23.336;2023-08-07T09:12:19;-18091.72;;;-145.34;48.79
5296;BME280;2670;42.720;23.336;2023-08-07T09:14:50;-18091.72;;;-145.34;48.08
5296;BME280;2670;42.720;23.336;2023-08-07T09:17:21;-18091.72;;;-145.34;48.22
5296;BME280;2670;42.720;23.336;2023-08-07T09:19:49;-18091.72;;;-145.34;48.21
5296;BME280;2670;42.720;23.336;2023-08-07T09:22:18;-18091.72;;;-145.34;47.70
5296;BME280;2670;42.720;23.336;2023-08-07T09:24:45;-18091.72;;;-145.34;48.18
5296;BME280;2670;42.720;23.336;2023-08-07T09:27:12;-18091.72;;;-145.34;48.17
5296;BME280;2670;42.720;23.336;2023-08-07T09:29:39;-18091.72;;;-145.34;48.72
5296;BME280;2670;42.720;23.336;2023-08-07T09:32:07;-18091.72;;;-145.34;48.45
5296;BME280;2670;42.720;23.336;2023-08-07T09:34:34;-18091.72;;;-145.34;48.54
5296;BME280;2670;42.720;23.336;2023-08-07T09:37:01;-18091.72;;;-145.34;48.01
5296;BME280;2670;42.720;23.336;2023-08-07T09:39:31;-18091.72;;;-145.34;49.04
5296;BME280;2670;42.720;23.336;2023-08-07T09:41:58;-18091.72;;;-145.34;47.61
5296;BME280;2670;42.720;23.336;2023-08-07T09:44:25;-18091.72;;;-145.34;47.08
5296;BME280;2670;42.720;23.336;2023-08-07T09:46:51;-18091.72;;;-145.34;46.29
5296;BME280;2670;42.720;23.336;2023-08-07T09:49:19;-18091.72;;;-145.34;47.44
5296;BME280;2670;42.720;23.336;2023-08-07T09:51:48;-18091.72;;;-145.34;47.14
5296;BME280;2670;42.720;23.336;2023-08-07T09:54:16;-18091.72;;;-145.34;46.50
5296;BME280;2670;42.720;23.336;2023-08-07T09:56:46;-18091.72;;;-145.34;46.09
5296;BME280;2670;42.720;23.336;2023-08-07T09:59:13;-18091.72;;;-145.34;46.03
5296;BME280;2670;42.720;23.336;2023-08-07T10:01:41;-18091.72;;;-145.34;45.78
5296;BME280;2670;42.720;23.336;2023-08-07T10:04:10;-18091.72;;;-145.34;46.05
5296;BME280;2670;42.720;23.336;2023-08-07T10:06:41;-18091.72;;;-145.34;45.59
5296;BME280;2670;42.720;23.336;2023-08-07T10:09:08;-18091.72;;;-145.34;45.38
5296;BME280;2670;42.720;23.336;2023-08-07T10:11:35;-18091.72;;;-145.34;44.38
5296;BME280;2670;42.720;23.336;2023-08-07T10:14:04;-18091.72;;;-145.34;44.96
5296;BME280;2670;42.720;23.336;2023-08-07T10:16:31;-18091.72;;;-145.34;44.42
5296;BME280;2670;42.720;23.336;2023-08-07T10:18:58;-18091.72;;;-145.34;45.33
5296;BME280;2670;42.720;23.336;2023-08-07T10:21:25;-18091.72;;;-145.34;44.15
5296;BME280;2670;42.720;23.336;2023-08-07T10:23:53;-18091.72;;;-145.34;43.77
5296;BME280;2670;42.720;23.336;2023-08-07T10:26:21;-18091.72;;;-145.34;44.25
5296;BME280;2670;42.720;23.336;2023-08-07T10:28:49;-18091.72;;;-145.34;44.29
5296;BME280;2670;42.720;23.336;2023-08-07T10:31:20;-18091.72;;;-145.34;44.24
5296;BME280;2670;42.720;23.336;2023-08-07T10:33:48;-18091.72;;;-145.34;44.78
5296;BME280;2670;42.720;23.336;2023-08-07T10:36:16;-18091.72;;;-145.34;44.26
5296;BME280;2670;42.720;23.336;2023-08-07T10:38:43;-18091.72;;;-145.34;43.41
5296;BME280;2670;42.720;23.336;2023-08-07T10:41:12;-18091.72;;;-145.34;43.91
5296;BME280;2670;42.720;23.336;2023-08-07T10:43:39;-18091.72;;;-145.34;43.87
5296;BME280;2670;42.720;23.336;2023-08-07T10:46:09;-18091.72;;;-145.34;43.78
5296;BME280;2670;42.720;23.336;2023-08-07T10:48:42;-18091.72;;;-145.34;43.85
5296;BME280;2670;42.720;23.336;2023-08-07T10:51:12;-18091.72;;;-145.34;43.54
5296;BME280;2670;42.720;23.336;2023-08-07T10:53:42;-18091.72;;;-145.34;42.53
5296;BME280;2670;42.720;23.336;2023-08-07T10:56:11;-18091.72;;;-145.34;42.11
5296;BME280;2670;42.720;23.336;2023-08-07T10:58:39;-18091.72;;;-145.34;42.33
5296;BME280;2670;42.720;23.336;2023-08-07T11:01:19;-18091.72;;;-145.34;42.66
5296;BME280;2670;42.720;23.336;2023-08-07T11:03:51;-18091.72;;;-145.34;42.82
5296;BME280;2670;42.720;23.336;2023-08-07T11:06:17;-18091.72;;;-145.34;42.79
5296;BME280;2670;42.720;23.336;2023-08-07T11:08:44;-18091.72;;;-145.34;42.93
5296;BME280;2670;42.720;23.336;2023-08-07T11:11:11;-18091.72;;;-145.34;42.96
5296;BME280;2670;42.720;23.336;2023-08-07T11:13:38;-18091.72;;;-145.34;43.46
5296;BME280;2670;42.720;23.336;2023-08-07T11:16:05;-18091.72;;;-145.34;43.57
5296;BME280;2670;42.720;23.336;2023-08-07T11:18:33;-18091.72;;;-145.34;43.02
5296;BME280;2670;42.720;23.336;2023-08-07T11:21:02;-18091.72;;;-145.34;43.73
5296;BME280;2670;42.720;23.336;2023-08-07T11:23:29;-18091.72;;;-145.34;42.30
5296;BME280;2670;42.720;23.336;2023-08-07T11:25:56;-18091.72;;;-145.34;43.78
5296;BME280;2670;42.720;23.336;2023-08-07T11:28:23;-18091.72;;;-145.34;43.36
5296;BME280;2670;42.720;23.336;2023-08-07T11:30:51;-18091.72;;;-145.34;43.84
5296;BME280;2670;42.720;23.336;2023-08-07T11:33:19;-18091.72;;;-145.34;43.78
5296;BME280;2670;42.720;23.336;2023-08-07T11:35:47;-18091.72;;;-145.34;43.25
5296;BME280;2670;42.720;23.336;2023-08-07T11:38:29;-18091.72;;;-145.34;43.26
5296;BME280;2670;42.720;23.336;2023-08-07T11:40:58;-18091.72;;;-145.34;44.21
5296;BME280;2670;42.720;23.336;2023-08-07T11:43:27;-18091.72;;;-145.34;43.12
5296;BME280;2670;42.720;23.336;2023-08-07T11:45:54;-18091.72;;;-145.34;43.92
5296;BME280;2670;42.720;23.336;2023-08-07T11:48:23;-18091.72;;;-145.34;43.16
5296;BME280;2670;42.720;23.336;2023-08-07T11:50:51;-18091.72;;;-145.34;43.92
5296;BME280;2670;42.720;23.336;2023-08-07T11:53:19;-18091.72;;;-145.34;43.91
5296;BME280;2670;42.720;23.336;2023-08-07T11:55:51;-18091.72;;;-145.34;43.56
5296;BME280;2670;42.720;23.336;2023-08-07T11:58:18;-18091.72;;;-145.34;44.08
5296;BME280;2670;42.720;23.336;2023-08-07T12:00:46;-18091.72;;;-145.34;45.07
5296;BME280;2670;42.720;23.336;2023-08-07T12:03:27;-18091.72;;;-145.34;44.01
5296;BME280;2670;42.720;23.336;2023-08-07T12:05:55;-18091.72;;;-145.34;43.44
5296;BME280;2670;42.720;23.336;2023-08-07T12:08:24;-18091.72;;;-145.34;44.67
5296;BME280;2670;42.720;23.336;2023-08-07T12:10:50;-18091.72;;;-145.34;44.35
5296;BME280;2670;42.720;23.336;2023-08-07T12:13:20;-18091.72;;;-145.34;44.65
5296;BME280;2670;42.720;23.336;2023-08-07T12:15:51;-18091.72;;;-145.34;45.19
5296;BME280;2670;42.720;23.336;2023-08-07T12:18:18;-18091.72;;;-145.34;44.37
5296;BME280;2670;42.720;23.336;2023-08-07T12:20:45;-18091.72;;;-145.34;44.26
5296;BME280;2670;42.720;23.336;2023-08-07T12:23:14;-18091.72;;;-145.34;43.71
5296;BME280;2670;42.720;23.336;2023-08-07T12:25:43;-18091.72;;;-145.34;44.07
5296;BME280;2670;42.720;23.336;2023-08-07T12:28:10;-18091.72;;;-145.34;43.99
5296;BME280;2670;42.720;23.336;2023-08-07T12:30:37;-18091.72;;;-145.34;44.65
5296;BME280;2670;42.720;23.336;2023-08-07T12:33:05;-18091.72;;;-145.34;43.99
5296;BME280;2670;42.720;23.336;2023-08-07T12:35:33;-18091.72;;;-145.34;45.13
5296;BME280;2670;42.720;23.336;2023-08-07T12:38:00;-18091.72;;;-145.34;45.62
5296;BME280;2670;42.720;23.336;2023-08-07T12:40:28;-18091.72;;;-145.34;45.91
5296;BME280;2670;42.720;23.336;2023-08-07T12:42:57;-18091.72;;;-145.34;44.96